createdAt,value
2019-01-18T00:00:14.510Z,2.72
2019-01-18T00:01:14.758Z,2.72
2019-01-18T00:02:15.442Z,2.65
2019-01-18T00:03:16.166Z,2.76
2019-01-18T00:04:16.852Z,2.58
2019-01-18T00:05:17.538Z,2.72
2019-01-18T00:06:17.956Z,2.68
2019-01-18T00:07:18.354Z,2.68
2019-01-18T00:08:19.323Z,2.65
2019-01-18T00:09:19.464Z,2.68
2019-01-18T00:10:20.592Z,2.58
2019-01-18T00:11:20.857Z,2.68
2019-01-18T00:12:21.544Z,2.7
2019-01-18T00:13:21.946Z,2.73
2019-01-18T00:14:22.912Z,2.7
2019-01-18T00:15:23.153Z,2.7
2019-01-18T00:16:23.275Z,2.72
2019-01-18T00:17:23.957Z,2.69
2019-01-18T00:18:24.195Z,2.73
2019-01-18T00:19:24.878Z,2.75
2019-01-18T00:20:25.287Z,2.75
2019-01-18T00:21:25.813Z,2.73
2019-01-18T00:22:27.216Z,2.75
2019-01-18T00:23:27.175Z,2.77
2019-01-18T00:24:28.800Z,2.64
2019-01-18T00:25:29.205Z,2.65
2019-01-18T00:26:30.193Z,2.75
2019-01-18T00:27:30.598Z,2.7
2019-01-18T00:28:31.564Z,2.76
2019-01-18T00:29:31.972Z,2.73
2019-01-18T00:30:32.650Z,2.76
2019-01-18T00:31:33.477Z,2.7
2019-01-18T00:32:33.602Z,2.72
2019-01-18T00:33:34.727Z,2.77
2019-01-18T00:34:36.409Z,2.7
2019-01-18T00:35:36.826Z,2.88
2019-01-18T00:36:37.229Z,2.8
2019-01-18T00:37:37.911Z,2.9
2019-01-18T00:38:38.592Z,2.85
2019-01-18T00:39:38.549Z,2.77
2019-01-18T00:40:39.953Z,2.85
2019-01-18T00:41:40.071Z,2.88
2019-01-18T00:42:40.473Z,2.91
2019-01-18T00:43:40.876Z,2.91
2019-01-18T00:44:41.280Z,2.9
2019-01-18T00:45:41.681Z,2.91
2019-01-18T00:46:42.120Z,2.85
2019-01-18T00:47:43.534Z,2.87
2019-01-18T00:48:43.937Z,2.93
2019-01-18T00:49:44.340Z,2.95
2019-01-18T00:50:44.743Z,3.05
2019-01-18T00:51:45.579Z,2.95
2019-01-18T00:52:45.713Z,3.05
2019-01-18T00:53:46.678Z,3.01
2019-01-18T00:54:47.809Z,3.01
2019-01-18T00:55:48.492Z,2.97
2019-01-18T00:56:49.899Z,3
2019-01-18T00:57:50.301Z,3.08
2019-01-18T00:58:50.704Z,2.98
2019-01-18T00:59:51.401Z,3.08
2019-01-18T01:00:51.806Z,3.05
2019-01-18T01:01:53.210Z,3
2019-01-18T01:02:53.659Z,2.98
2019-01-18T01:03:54.619Z,2.98
2019-01-18T01:04:55.580Z,2.97
2019-01-18T01:05:55.982Z,2.95
2019-01-18T01:06:56.940Z,2.94
2019-01-18T01:07:57.342Z,2.94
2019-01-18T01:08:58.026Z,2.9
2019-01-18T01:09:58.709Z,2.93
2019-01-18T01:10:59.113Z,2.97
2019-01-18T01:12:00.529Z,3.06
2019-01-18T01:13:00.654Z,3.01
2019-01-18T01:14:02.059Z,3
2019-01-18T01:15:02.739Z,3.08
2019-01-18T01:16:04.144Z,3.13
2019-01-18T01:17:04.550Z,3.06
2019-01-18T01:18:05.232Z,3.12
2019-01-18T01:19:05.635Z,3.19
2019-01-18T01:20:06.596Z,3.06
2019-01-18T01:21:06.719Z,3.08
2019-01-18T01:22:07.604Z,3.21
2019-01-18T01:23:08.565Z,3.12
2019-01-18T01:24:08.966Z,3.12
2019-01-18T01:25:09.368Z,3.22
2019-01-18T01:26:10.352Z,3.34
2019-01-18T01:27:11.031Z,3.3
2019-01-18T01:28:11.718Z,3.48
2019-01-18T01:29:12.398Z,3.31
2019-01-18T01:30:12.802Z,3.5
2019-01-18T01:31:14.211Z,3.5
2019-01-18T01:32:15.011Z,3.49
2019-01-18T01:33:16.138Z,3.52
2019-01-18T01:34:17.264Z,3.49
2019-01-18T01:35:17.946Z,3.63
2019-01-18T01:36:18.375Z,3.63
2019-01-18T01:37:19.055Z,3.61
2019-01-18T01:38:19.461Z,3.61
2019-01-18T01:39:20.586Z,3.7
2019-01-18T01:40:21.268Z,3.67
2019-01-18T01:41:22.396Z,3.64
2019-01-18T01:42:23.206Z,3.71
2019-01-18T01:43:23.899Z,3.77
2019-01-18T01:44:24.583Z,3.74
2019-01-18T01:45:24.552Z,3.76
2019-01-18T01:46:25.960Z,3.7
2019-01-18T01:47:26.369Z,3.7
2019-01-18T01:48:27.051Z,3.66
2019-01-18T01:49:27.180Z,3.59
2019-01-18T01:50:28.312Z,3.66
2019-01-18T01:51:29.717Z,3.49
2019-01-18T01:52:30.825Z,3.63
2019-01-18T01:53:30.971Z,3.61
2019-01-18T01:54:31.377Z,3.58
2019-01-18T01:55:32.090Z,3.59
2019-01-18T01:56:32.498Z,3.59
2019-01-18T01:57:34.189Z,3.41
2019-01-18T01:58:34.596Z,3.49
2019-01-18T01:59:35.277Z,3.52
2019-01-18T02:00:35.963Z,3.48
2019-01-18T02:01:36.649Z,3.59
2019-01-18T02:02:37.055Z,3.59
2019-01-18T02:03:37.738Z,3.46
2019-01-18T02:04:38.142Z,3.55
2019-01-18T02:05:38.548Z,3.53
2019-01-18T02:06:39.559Z,3.49
2019-01-18T02:07:39.966Z,3.58
2019-01-18T02:08:40.678Z,3.63
2019-01-18T02:09:41.808Z,3.52
2019-01-18T02:10:42.934Z,3.61
2019-01-18T02:11:43.341Z,3.58
2019-01-18T02:12:44.712Z,3.48
2019-01-18T02:13:44.952Z,3.45
2019-01-18T02:14:45.644Z,3.52
2019-01-18T02:15:46.048Z,3.4
2019-01-18T02:16:47.199Z,3.37
2019-01-18T02:17:47.604Z,3.48
2019-01-18T02:18:48.733Z,3.41
2019-01-18T02:19:49.141Z,3.27
2019-01-18T02:20:49.830Z,3.13
2019-01-18T02:21:50.241Z,2.75
2019-01-18T02:22:50.921Z,2.28
2019-01-18T02:23:52.199Z,1.7
2019-01-18T02:24:52.884Z,1.38
2019-01-18T02:25:53.298Z,1.24
2019-01-18T02:26:54.423Z,1.16
2019-01-18T02:27:55.830Z,0.96
2019-01-18T02:28:56.513Z,0.96
2019-01-18T02:29:58.292Z,0.91
2019-01-18T02:30:58.977Z,0.81
2019-01-18T02:31:59.680Z,0.82
2019-01-18T02:33:00.224Z,0.84
2019-01-18T02:34:01.191Z,0.81
2019-01-18T02:35:02.158Z,0.76
2019-01-18T02:36:02.398Z,0.71
2019-01-18T02:37:03.531Z,0.63
2019-01-18T02:38:03.937Z,0.64
2019-01-18T02:39:04.618Z,0.61
2019-01-18T02:40:06.308Z,0.51
2019-01-18T02:41:06.004Z,0.47
2019-01-18T02:42:06.687Z,0.33
2019-01-18T02:43:07.629Z,0.36
2019-01-18T02:44:08.596Z,0.23
2019-01-18T02:45:09.281Z,0.31
2019-01-18T02:46:09.702Z,0.19
2019-01-18T02:47:10.106Z,0.19
2019-01-18T02:48:11.622Z,0.23
2019-01-18T02:49:11.877Z,0.16
2019-01-18T02:50:12.570Z,0.11
2019-01-18T02:51:12.696Z,0.2
2019-01-18T02:52:13.385Z,0.13
2019-01-18T02:53:14.756Z,0.15
2019-01-18T02:54:16.020Z,0.13
2019-01-18T02:55:16.424Z,0.24
2019-01-18T02:56:17.575Z,0.16
2019-01-18T02:57:18.705Z,0.09
2019-01-18T02:58:19.103Z,0.13
2019-01-18T02:59:19.785Z,0.13
2019-01-18T03:00:20.472Z,0.19
2019-01-18T03:01:21.168Z,0.2
2019-01-18T03:02:22.408Z,0.24
2019-01-18T03:03:23.071Z,0.3
2019-01-18T03:04:23.482Z,0.27
2019-01-18T03:05:24.182Z,0.23
2019-01-18T03:06:25.143Z,0.23
2019-01-18T03:07:25.606Z,0.27
2019-01-18T03:08:26.568Z,0.19
2019-01-18T03:09:27.276Z,0.18
2019-01-18T03:10:28.238Z,0.2
2019-01-18T03:11:29.654Z,0.2
2019-01-18T03:12:30.610Z,0.2
2019-01-18T03:13:31.000Z,0.23
2019-01-18T03:14:31.965Z,0.24
2019-01-18T03:15:32.209Z,0.3
2019-01-18T03:16:33.301Z,0.24
2019-01-18T03:17:33.259Z,0.26
2019-01-18T03:18:34.035Z,0.2
2019-01-18T03:19:34.996Z,0.15
2019-01-18T03:20:35.966Z,0.2
2019-01-18T03:21:36.927Z,0.16
2019-01-18T03:22:37.624Z,0.09
2019-01-18T03:23:38.434Z,0.08
2019-01-18T03:24:39.678Z,0.06
2019-01-18T03:25:40.087Z,0.12
2019-01-18T03:26:41.050Z,0.18
2019-01-18T03:27:40.729Z,0.13
2019-01-18T03:28:41.693Z,0.15
2019-01-18T03:29:42.400Z,0.12
2019-01-18T03:30:43.101Z,0.15
2019-01-18T03:31:44.480Z,0.18
2019-01-18T03:32:45.421Z,0.24
2019-01-18T03:33:46.834Z,0.23
2019-01-18T03:34:47.795Z,0.18
2019-01-18T03:35:47.499Z,0.16
2019-01-18T03:36:47.903Z,0.16
2019-01-18T03:37:48.881Z,0.18
2019-01-18T03:38:49.879Z,0.2
2019-01-18T03:39:50.279Z,0.27
2019-01-18T03:40:50.964Z,0.19
2019-01-18T03:41:51.095Z,0.2
2019-01-18T03:42:52.499Z,0.2
2019-01-18T03:43:53.608Z,0.18
2019-01-18T03:44:54.566Z,0.2
2019-01-18T03:45:55.702Z,0.26
2019-01-18T03:46:56.659Z,0.19
2019-01-18T03:47:57.620Z,0.19
2019-01-18T03:48:58.027Z,0.19
2019-01-18T03:49:58.439Z,0.26
2019-01-18T03:50:59.126Z,0.27
2019-01-18T03:52:00.363Z,0.36
2019-01-18T03:53:01.319Z,0.29
2019-01-18T03:54:02.680Z,0.34
2019-01-18T03:55:02.428Z,0.33
2019-01-18T03:56:03.388Z,0.44
2019-01-18T03:57:04.397Z,0.33
2019-01-18T03:58:04.358Z,0.37
2019-01-18T03:59:05.051Z,0.29
2019-01-18T04:00:06.288Z,0.39
2019-01-18T04:01:06.967Z,0.37
2019-01-18T04:02:08.387Z,0.26
2019-01-18T04:03:08.650Z,0.31
2019-01-18T04:04:09.773Z,0.4
2019-01-18T04:05:10.458Z,0.4
2019-01-18T04:06:10.602Z,0.47
2019-01-18T04:07:12.025Z,0.37
2019-01-18T04:08:12.991Z,0.4
2019-01-18T04:09:13.675Z,0.47
2019-01-18T04:10:14.360Z,0.49
2019-01-18T04:11:15.048Z,0.55
2019-01-18T04:12:15.747Z,0.44
2019-01-18T04:13:17.190Z,0.4
2019-01-18T04:14:18.024Z,0.44
2019-01-18T04:15:18.709Z,0.37
2019-01-18T04:16:19.678Z,0.48
2019-01-18T04:17:20.374Z,0.47
2019-01-18T04:18:21.504Z,0.52
2019-01-18T04:19:22.466Z,0.61
2019-01-18T04:20:22.899Z,0.51
2019-01-18T04:21:23.867Z,0.45
2019-01-18T04:22:23.833Z,0.48
2019-01-18T04:23:24.512Z,0.42
2019-01-18T04:24:25.333Z,0.47
2019-01-18T04:25:26.572Z,0.42
2019-01-18T04:26:26.566Z,0.39
2019-01-18T04:27:26.979Z,0.4
2019-01-18T04:28:28.674Z,0.47
2019-01-18T04:29:29.082Z,0.49
2019-01-18T04:30:34.871Z,0.33
2019-01-18T04:31:35.269Z,0.42
2019-01-18T04:32:35.957Z,0.45
2019-01-18T04:33:36.644Z,0.37
2019-01-18T04:34:37.776Z,0.42
2019-01-18T04:35:38.025Z,0.39
2019-01-18T04:36:38.707Z,0.44
2019-01-18T04:37:39.393Z,0.44
2019-01-18T04:38:40.081Z,0.51
2019-01-18T04:39:40.763Z,0.55
2019-01-18T04:40:41.185Z,0.61
2019-01-18T04:41:41.696Z,0.56
2019-01-18T04:42:42.110Z,0.59
2019-01-18T04:43:42.509Z,0.45
2019-01-18T04:44:43.320Z,0.48
2019-01-18T04:45:44.292Z,0.48
2019-01-18T04:46:45.254Z,0.59
2019-01-18T04:47:46.218Z,0.61
2019-01-18T04:48:46.629Z,0.58
2019-01-18T04:49:47.034Z,0.59
2019-01-18T04:50:47.732Z,0.66
2019-01-18T04:51:48.431Z,0.68
2019-01-18T04:52:49.235Z,0.68
2019-01-18T04:53:49.926Z,0.59
2019-01-18T04:54:50.017Z,0.64
2019-01-18T04:55:51.422Z,0.7
2019-01-18T04:56:51.424Z,0.64
2019-01-18T04:57:51.667Z,0.64
2019-01-18T04:58:52.626Z,0.71
2019-01-18T04:59:54.028Z,0.63
2019-01-18T05:00:54.990Z,0.67
2019-01-18T05:01:55.394Z,0.71
2019-01-18T05:02:57.112Z,0.55
2019-01-18T05:03:57.519Z,0.63
2019-01-18T05:04:58.646Z,0.55
2019-01-18T05:05:59.734Z,0.51
2019-01-18T05:07:00.427Z,0.42
2019-01-18T05:08:01.387Z,0.42
2019-01-18T05:09:02.073Z,0.49
2019-01-18T05:10:03.037Z,0.34
2019-01-18T05:11:03.288Z,0.45
2019-01-18T05:12:03.578Z,0.3
2019-01-18T05:13:03.983Z,0.26
2019-01-18T05:14:05.225Z,0.29
2019-01-18T05:15:05.677Z,0.24
2019-01-18T05:16:06.089Z,0.23
2019-01-18T05:17:07.610Z,0.29
2019-01-18T05:18:08.019Z,0.27
2019-01-18T05:19:08.705Z,0.29
2019-01-18T05:20:09.407Z,0.36
2019-01-18T05:21:09.815Z,0.26
2019-01-18T05:22:10.942Z,0.26
2019-01-18T05:23:12.353Z,0.24
2019-01-18T05:24:13.031Z,0.24
2019-01-18T05:25:13.492Z,0.31
2019-01-18T05:26:14.182Z,0.19
2019-01-18T05:27:16.144Z,0.26
2019-01-18T05:28:16.564Z,0.24
2019-01-18T05:29:16.808Z,0.24
2019-01-18T05:30:18.224Z,0.24
2019-01-18T05:31:18.469Z,0.23
2019-01-18T05:32:18.871Z,0.23
2019-01-18T05:33:20.554Z,0.23
2019-01-18T05:34:21.077Z,0.19
2019-01-18T05:35:21.897Z,0.27
2019-01-18T05:36:22.586Z,0.13
2019-01-18T05:37:23.268Z,0.19
2019-01-18T05:38:23.949Z,0.15
2019-01-18T05:39:24.634Z,0.15
2019-01-18T05:40:25.323Z,0.13
2019-01-18T05:41:25.285Z,0.12
2019-01-18T05:42:26.810Z,0.12
2019-01-18T05:43:27.329Z,0.18
2019-01-18T05:44:27.459Z,0.15
2019-01-18T05:45:28.057Z,0.13
2019-01-18T05:46:29.465Z,0.18
2019-01-18T05:47:29.873Z,0.13
2019-01-18T05:48:30.291Z,0.19
2019-01-18T05:49:30.992Z,0.19
2019-01-18T05:50:31.401Z,0.18
2019-01-18T05:51:32.106Z,0.12
2019-01-18T05:52:33.782Z,0.15
2019-01-18T05:53:35.022Z,0.15
2019-01-18T05:54:34.755Z,0.23
2019-01-18T05:55:35.864Z,0.26
2019-01-18T05:56:36.108Z,0.15
2019-01-18T05:57:36.913Z,0.19
2019-01-18T05:58:37.600Z,0.19
2019-01-18T05:59:38.298Z,0.23
2019-01-18T06:00:38.983Z,0.19
2019-01-18T06:01:39.667Z,0.23
2019-01-18T06:02:41.073Z,0.27
2019-01-18T06:03:41.761Z,0.29
2019-01-18T06:04:42.721Z,0.27
2019-01-18T06:05:43.815Z,0.29
2019-01-18T06:06:44.606Z,0.39
2019-01-18T06:07:45.732Z,0.4
2019-01-18T06:08:47.013Z,0.48
2019-01-18T06:09:47.154Z,0.4
2019-01-18T06:10:47.833Z,0.45
2019-01-18T06:11:48.798Z,0.42
2019-01-18T06:12:50.484Z,0.42
2019-01-18T06:13:51.445Z,0.42
2019-01-18T06:14:52.129Z,0.36
2019-01-18T06:15:52.964Z,0.39
2019-01-18T06:16:53.926Z,0.47
2019-01-18T06:17:53.610Z,0.45
2019-01-18T06:18:54.018Z,0.45
2019-01-18T06:19:54.417Z,0.42
2019-01-18T06:20:54.819Z,0.39
2019-01-18T06:21:56.224Z,0.45
2019-01-18T06:22:56.627Z,0.42
2019-01-18T06:23:57.754Z,0.42
2019-01-18T06:24:58.165Z,0.51
2019-01-18T06:25:59.109Z,0.45
2019-01-18T06:26:59.798Z,0.44
2019-01-18T06:28:01.044Z,0.45
2019-01-18T06:29:00.764Z,0.42
2019-01-18T06:30:02.733Z,0.27
2019-01-18T06:31:03.003Z,0.26
2019-01-18T06:32:03.724Z,0.24
2019-01-18T06:33:04.477Z,0.19
2019-01-18T06:34:05.427Z,0.16
2019-01-18T06:35:05.771Z,0.2
2019-01-18T06:36:06.897Z,0.23
2019-01-18T06:37:06.952Z,0.15
2019-01-18T06:38:07.542Z,0.24
2019-01-18T06:39:08.203Z,0.19
2019-01-18T06:40:09.096Z,0.19
2019-01-18T06:41:10.052Z,0.2
2019-01-18T06:42:10.186Z,0.19
2019-01-18T06:43:10.595Z,0.2
2019-01-18T06:44:11.589Z,0.19
2019-01-18T06:45:12.150Z,0.26
2019-01-18T06:46:13.018Z,0.19
2019-01-18T06:47:13.735Z,0.23
2019-01-18T06:48:15.142Z,0.18
2019-01-18T06:49:15.650Z,0.26
2019-01-18T06:50:16.139Z,0.15
2019-01-18T06:51:17.547Z,0.19
2019-01-18T06:52:18.869Z,0.23
2019-01-18T06:53:18.526Z,0.16
2019-01-18T06:54:19.555Z,0.19
2019-01-18T06:55:19.795Z,0.13
2019-01-18T06:56:21.164Z,0.2
2019-01-18T06:57:21.572Z,0.27
2019-01-18T06:58:24.587Z,0.27
2019-01-18T06:59:23.847Z,0.26
2019-01-18T07:00:23.970Z,0.19
2019-01-18T07:01:24.936Z,0.12
2019-01-18T07:02:25.647Z,0.11
2019-01-18T07:03:26.861Z,0.15
2019-01-18T07:04:27.432Z,0.11
2019-01-18T07:05:28.569Z,0.08
2019-01-18T07:06:29.671Z,0.09
2019-01-18T07:07:31.517Z,0.05
2019-01-18T07:08:34.633Z,0.05
2019-01-18T07:08:45.193Z,0.13
2019-01-18T07:09:47.095Z,0.11
2019-01-18T07:09:58.579Z,0.01
2019-01-18T07:10:57.048Z,0.08
2019-01-18T07:11:58.014Z,0.16
2019-01-18T07:12:59.279Z,0.09
2019-01-18T07:13:59.806Z,0.15
2019-01-18T07:15:00.311Z,0.19
2019-01-18T07:16:01.586Z,0.19
2019-01-18T07:17:02.332Z,0.23
2019-01-18T07:18:02.845Z,0.2
2019-01-18T07:19:04.269Z,0.29
2019-01-18T07:20:04.809Z,0.33
2019-01-18T07:21:05.069Z,0.19
2019-01-18T07:22:06.197Z,0.3
2019-01-18T07:23:06.884Z,0.26
2019-01-18T07:24:08.570Z,0.33
2019-01-18T07:25:08.703Z,0.33
2019-01-18T07:26:09.833Z,0.29
2019-01-18T07:27:10.519Z,0.39
2019-01-18T07:28:11.206Z,0.23
2019-01-18T07:29:11.896Z,0.26
2019-01-18T07:30:12.308Z,0.31
2019-01-18T07:31:16.207Z,0.26
2019-01-18T07:32:16.615Z,0.3
2019-01-18T07:33:17.745Z,0.31
2019-01-18T07:34:18.163Z,0.27
2019-01-18T07:35:22.822Z,0.27
2019-01-18T07:35:32.355Z,0.3
2019-01-18T07:36:31.244Z,0.31
2019-01-18T07:37:32.651Z,0.29
2019-01-18T07:38:33.066Z,0.4
2019-01-18T07:39:34.193Z,0.34
2019-01-18T07:40:34.882Z,0.37
2019-01-18T07:41:35.301Z,0.51
2019-01-18T07:42:36.430Z,0.44
2019-01-18T07:43:37.841Z,0.51
2019-01-18T07:44:38.972Z,0.39
2019-01-18T07:45:40.107Z,0.56
2019-01-18T07:46:40.645Z,0.42
2019-01-18T07:47:43.235Z,0.47
2019-01-18T07:48:43.451Z,0.45
2019-01-18T07:49:43.861Z,0.39
2019-01-18T07:50:44.857Z,0.47
2019-01-18T07:51:46.292Z,0.42
2019-01-18T07:52:47.287Z,0.36
2019-01-18T07:53:47.973Z,0.44
2019-01-18T07:54:48.945Z,0.42
2019-01-18T07:55:49.078Z,0.4
2019-01-18T07:56:49.354Z,0.48
2019-01-18T07:57:50.657Z,0.49
2019-01-18T07:58:51.068Z,0.56
2019-01-18T07:59:52.081Z,0.56
2019-01-18T08:00:52.216Z,0.63
2019-01-18T08:01:52.622Z,0.55
2019-01-18T08:02:53.758Z,0.63
2019-01-18T08:03:54.165Z,0.67
2019-01-18T08:04:55.635Z,0.64
2019-01-18T08:05:55.825Z,0.67
2019-01-18T08:06:56.953Z,0.66
2019-01-18T08:07:57.643Z,0.71
2019-01-18T08:08:58.332Z,0.74
2019-01-18T08:09:58.676Z,0.81
2019-01-18T08:10:59.633Z,0.85
2019-01-18T08:12:00.040Z,0.86
2019-01-18T08:13:01.201Z,0.86
2019-01-18T08:14:01.613Z,0.95
2019-01-18T08:15:02.857Z,1
2019-01-18T08:16:03.824Z,0.92
2019-01-18T08:17:03.968Z,0.88
2019-01-18T08:18:04.663Z,0.95
2019-01-18T08:19:05.634Z,0.95
2019-01-18T08:20:06.323Z,0.92
2019-01-18T08:21:06.752Z,0.94
2019-01-18T08:22:07.173Z,0.78
2019-01-18T08:23:07.604Z,0.91
2019-01-18T08:24:08.156Z,0.91
2019-01-18T08:25:08.907Z,0.88
2019-01-18T08:26:09.957Z,0.99
2019-01-18T08:27:10.212Z,1
2019-01-18T08:28:10.897Z,1.1
2019-01-18T08:29:11.308Z,1.07
2019-01-18T08:30:11.743Z,1.2
2019-01-18T08:31:12.472Z,1.2
2019-01-18T08:32:13.449Z,1.18
2019-01-18T08:33:14.229Z,1.14
2019-01-18T08:34:15.693Z,1.2
2019-01-18T08:35:16.107Z,1.24
2019-01-18T08:36:16.290Z,1.22
2019-01-18T08:37:17.472Z,1.27
2019-01-18T08:38:18.219Z,1.28
2019-01-18T08:39:18.920Z,1.4
2019-01-18T08:40:20.089Z,1.25
2019-01-18T08:41:21.290Z,1.45
2019-01-18T08:42:21.775Z,1.42
2019-01-18T08:43:23.022Z,1.46
2019-01-18T08:44:23.435Z,1.42
2019-01-18T08:45:24.569Z,1.39
2019-01-18T08:46:24.992Z,1.43
2019-01-18T08:47:26.094Z,1.53
2019-01-18T08:48:26.859Z,1.5
2019-01-18T08:49:27.133Z,1.56
2019-01-18T08:50:27.822Z,1.66
2019-01-18T08:51:28.793Z,1.78
2019-01-18T08:52:29.481Z,1.67
2019-01-18T08:53:29.892Z,1.79
2019-01-18T08:54:30.584Z,1.85
2019-01-18T08:55:31.830Z,1.86
2019-01-18T08:56:32.073Z,1.79
2019-01-18T08:57:32.610Z,1.71
2019-01-18T08:58:33.578Z,1.75
2019-01-18T08:59:34.003Z,1.84
2019-01-18T09:00:35.412Z,1.82
2019-01-18T09:01:36.883Z,1.85
2019-01-18T09:02:38.320Z,2.01
2019-01-18T09:03:39.338Z,1.92
2019-01-18T09:04:39.640Z,2.03
2019-01-18T09:05:40.681Z,2.04
2019-01-18T09:06:41.083Z,2.04
2019-01-18T09:07:43.034Z,2.04
2019-01-18T09:08:42.209Z,2.05
2019-01-18T09:09:42.348Z,2.15
2019-01-18T09:10:44.101Z,2.15
2019-01-18T09:11:44.820Z,2.1
2019-01-18T09:12:45.207Z,2.1
2019-01-18T09:13:46.574Z,2.1
2019-01-18T09:14:46.713Z,2.14
2019-01-18T09:15:48.149Z,2.22
2019-01-18T09:16:48.556Z,2.15
2019-01-18T09:17:49.464Z,2.15
2019-01-18T09:18:49.919Z,2.23
2019-01-18T09:19:51.206Z,2.15
2019-01-18T09:20:52.197Z,2.22
2019-01-18T09:21:53.164Z,2.19
2019-01-18T09:22:54.283Z,2.23
2019-01-18T09:23:54.698Z,2.23
2019-01-18T09:24:55.426Z,2.26
2019-01-18T09:25:56.394Z,2.32
2019-01-18T09:26:56.527Z,2.33
2019-01-18T09:27:57.408Z,2.26
2019-01-18T09:28:58.105Z,2.25
2019-01-18T09:29:59.359Z,2.33
2019-01-18T09:30:59.818Z,2.36
2019-01-18T09:32:00.227Z,2.37
2019-01-18T09:33:00.919Z,2.4
2019-01-18T09:34:02.164Z,2.25
2019-01-18T09:35:02.304Z,2.23
2019-01-18T09:36:02.717Z,2.14
2019-01-18T09:37:03.687Z,2.19
2019-01-18T09:38:03.951Z,2.23
2019-01-18T09:39:05.365Z,2.21
2019-01-18T09:40:06.075Z,2.26
2019-01-18T09:41:07.091Z,2.34
2019-01-18T09:42:07.512Z,2.33
2019-01-18T09:43:08.201Z,2.4
2019-01-18T09:44:08.655Z,2.32
2019-01-18T09:45:09.123Z,2.22
2019-01-18T09:46:09.569Z,2.25
2019-01-18T09:47:10.820Z,2.3
2019-01-18T09:48:11.363Z,2.22
2019-01-18T09:49:12.049Z,2.14
2019-01-18T09:50:12.464Z,2.22
2019-01-18T09:51:13.159Z,2.1
2019-01-18T09:52:14.578Z,2.33
2019-01-18T09:53:15.267Z,2.44
2019-01-18T09:54:15.961Z,2.52
2019-01-18T09:55:16.371Z,2.69
2019-01-18T09:56:17.102Z,2.68
2019-01-18T09:57:17.801Z,2.69
2019-01-18T09:58:18.645Z,2.75
2019-01-18T09:59:19.783Z,2.77
2019-01-18T10:00:20.217Z,3.05
2019-01-18T10:01:21.641Z,3.15
2019-01-18T10:02:22.697Z,3.46
2019-01-18T10:03:22.878Z,3.85
2019-01-18T10:04:24.014Z,4.06
2019-01-18T10:05:24.546Z,4.14
2019-01-18T10:06:25.299Z,4.04
2019-01-18T10:07:25.713Z,4.4
2019-01-18T10:08:27.119Z,4.45
2019-01-18T10:09:27.812Z,4.5
2019-01-18T10:10:28.292Z,4.45
2019-01-18T10:11:28.983Z,4.56
2019-01-18T10:12:29.399Z,4.53
2019-01-18T10:13:29.845Z,4.31
2019-01-18T10:14:30.303Z,4.49
2019-01-18T10:15:31.722Z,4.28
2019-01-18T10:16:32.624Z,4.24
2019-01-18T10:17:32.332Z,4.12
2019-01-18T10:18:34.509Z,4.06
2019-01-18T10:19:34.579Z,4.07
2019-01-18T10:20:35.715Z,3.94
2019-01-18T10:21:36.130Z,3.89
2019-01-18T10:22:37.266Z,3.73
2019-01-18T10:23:37.957Z,3.76
2019-01-18T10:24:38.955Z,3.66
2019-01-18T10:25:40.369Z,3.63
2019-01-18T10:26:41.341Z,3.48
2019-01-18T10:27:41.757Z,3.48
2019-01-18T10:28:41.883Z,3.48
2019-01-18T10:29:42.857Z,3.37
2019-01-18T10:30:44.921Z,3.48
2019-01-18T10:31:44.060Z,3.71
2019-01-18T10:32:45.005Z,3.96
2019-01-18T10:33:46.087Z,4.48
2019-01-18T10:34:46.335Z,4.84
2019-01-18T10:35:46.478Z,5.15
2019-01-18T10:36:46.893Z,5.59
2019-01-18T10:37:48.263Z,5.49
2019-01-18T10:38:49.919Z,5.33
2019-01-18T10:39:49.177Z,5.51
2019-01-18T10:40:49.179Z,5.43
2019-01-18T10:41:49.786Z,5.74
2019-01-18T10:42:50.747Z,5.76
2019-01-18T10:43:51.722Z,5.92
2019-01-18T10:44:54.151Z,6.25
2019-01-18T10:45:06.529Z,6.38
2019-01-18T10:46:04.939Z,6.46
2019-01-18T10:47:05.638Z,6.72
2019-01-18T10:48:06.693Z,6.9
2019-01-18T10:49:07.677Z,7.03
2019-01-18T10:50:08.253Z,6.8
2019-01-18T10:51:09.056Z,6.64
2019-01-18T10:52:09.490Z,6.59
2019-01-18T10:53:10.910Z,6.41
2019-01-18T10:54:11.885Z,6.41
2019-01-18T10:55:12.034Z,6.25
2019-01-18T10:56:12.853Z,6.19
2019-01-18T10:57:13.588Z,6.28
2019-01-18T10:58:14.162Z,6.56
2019-01-18T10:59:15.440Z,6.96
2019-01-18T11:00:16.132Z,7.03
2019-01-18T11:01:16.275Z,7.07
2019-01-18T11:02:16.975Z,7.01
2019-01-18T11:03:17.668Z,7.36
2019-01-18T11:04:17.823Z,7.78
2019-01-18T11:05:19.243Z,8.05
2019-01-18T11:06:19.798Z,8.14
2019-01-18T11:07:20.263Z,8.05
2019-01-18T11:08:21.514Z,8.03
2019-01-18T11:09:23.258Z,8.06
2019-01-18T11:10:23.413Z,7.84
2019-01-18T11:11:24.556Z,7.67
2019-01-18T11:12:25.373Z,7.67
2019-01-18T11:13:25.810Z,7.62
2019-01-18T11:14:26.233Z,7.78
2019-01-18T11:15:28.425Z,8.2
2019-01-18T11:16:28.562Z,8.41
2019-01-18T11:17:28.257Z,8.75
2019-01-18T11:18:29.232Z,9.05
2019-01-18T11:19:29.936Z,9
2019-01-18T11:20:30.791Z,9.03
2019-01-18T11:21:30.522Z,9.15
2019-01-18T11:22:31.948Z,9.11
2019-01-18T11:23:32.587Z,8.97
2019-01-18T11:24:33.438Z,9
2019-01-18T11:25:35.328Z,8.79
2019-01-18T11:26:35.089Z,8.87
2019-01-18T11:27:36.200Z,8.45
2019-01-18T11:28:36.506Z,8.32
2019-01-18T11:29:37.199Z,8.45
2019-01-18T11:30:38.189Z,8.16
2019-01-18T11:31:39.446Z,8.23
2019-01-18T11:32:39.868Z,8.35
2019-01-18T11:33:41.288Z,8.39
2019-01-18T11:34:42.545Z,8.42
2019-01-18T11:35:43.345Z,8.68
2019-01-18T11:36:46.231Z,8.5
2019-01-18T11:37:47.814Z,8.77
2019-01-18T11:38:50.059Z,8.64
2019-01-18T11:39:02.301Z,8.63
2019-01-18T11:39:14.536Z,8.41
2019-01-18T11:39:26.423Z,8.46
2019-01-18T11:39:37.812Z,8.42
2019-01-18T11:40:35.678Z,8.41
2019-01-18T11:41:37.376Z,8.32
2019-01-18T11:42:38.073Z,8.57
2019-01-18T11:43:38.215Z,8.69
2019-01-18T11:44:38.639Z,8.69
2019-01-18T11:45:39.332Z,8.28
2019-01-18T11:46:39.752Z,8.18
2019-01-18T11:47:40.175Z,7.62
2019-01-18T11:48:41.599Z,7.56
2019-01-18T11:49:42.023Z,7.4
2019-01-18T11:50:42.129Z,7.22
2019-01-18T11:51:43.119Z,7.32
2019-01-18T11:52:43.374Z,7.36
2019-01-18T11:53:44.363Z,7.33
2019-01-18T11:54:45.642Z,7.18
2019-01-18T11:55:45.340Z,6.87
2019-01-18T11:56:46.321Z,6.59
2019-01-18T11:57:46.743Z,6.62
2019-01-18T11:58:47.173Z,6.47
2019-01-18T11:59:51.953Z,6.57
2019-01-18T12:00:52.221Z,6.49
2019-01-18T12:01:53.367Z,6.39
2019-01-18T12:02:53.790Z,6.28
2019-01-18T12:03:57.102Z,6.41
2019-01-18T12:04:06.834Z,6.25
2019-01-18T12:05:07.937Z,6.1
2019-01-18T12:06:09.707Z,6.17
2019-01-18T12:07:11.070Z,6.46
2019-01-18T12:07:24.779Z,6.56
2019-01-18T12:08:24.225Z,6.89
2019-01-18T12:09:24.645Z,7.23
2019-01-18T12:10:25.625Z,7.37
2019-01-18T12:11:26.321Z,7.29
2019-01-18T12:12:26.464Z,6.7
2019-01-18T12:13:26.879Z,6.2
2019-01-18T12:14:28.033Z,6.13
2019-01-18T12:15:29.012Z,6.26
2019-01-18T12:16:29.152Z,6.25
2019-01-18T12:17:34.015Z,6.22
2019-01-18T12:17:42.114Z,6.31
2019-01-18T12:18:41.884Z,6.38
2019-01-18T12:19:42.871Z,6.44
2019-01-18T12:20:43.289Z,6.67
2019-01-18T12:21:44.436Z,6.86
2019-01-18T12:22:45.690Z,7.21
2019-01-18T12:23:45.386Z,7.31
2019-01-18T12:24:46.084Z,7.62
2019-01-18T12:25:46.781Z,7.83
2019-01-18T12:26:47.223Z,7.88
2019-01-18T12:27:47.923Z,7.96
2019-01-18T12:28:48.200Z,7.85
2019-01-18T12:29:48.665Z,7.56
2019-01-18T12:30:49.369Z,7.21
2019-01-18T12:31:53.680Z,7.22
2019-01-18T12:32:51.288Z,7.31
2019-01-18T12:33:51.745Z,7.37
2019-01-18T12:34:52.895Z,7.31
2019-01-18T12:35:54.595Z,6.8
2019-01-18T12:37:00.549Z,6.16
2019-01-18T12:37:06.397Z,6.02
2019-01-18T12:38:06.964Z,5.69
2019-01-18T12:39:07.938Z,5.58
2019-01-18T12:40:08.393Z,5.67
2019-01-18T12:41:09.107Z,5.4
2019-01-18T12:42:12.038Z,5.44
2019-01-18T12:43:11.271Z,5.47
2019-01-18T12:44:11.618Z,5.54
2019-01-18T12:45:12.202Z,5.54
2019-01-18T12:46:12.719Z,5.58
2019-01-18T12:47:13.418Z,5.55
2019-01-18T12:48:14.640Z,5.36
2019-01-18T12:49:14.827Z,5.2
2019-01-18T12:50:15.242Z,4.84
2019-01-18T12:51:17.215Z,4.84
2019-01-18T12:52:16.800Z,4.83
2019-01-18T12:53:17.503Z,4.87
2019-01-18T12:54:18.648Z,4.84
2019-01-18T12:55:19.794Z,4.86
2019-01-18T12:56:20.213Z,4.79
2019-01-18T12:57:21.384Z,4.79
2019-01-18T12:58:21.925Z,4.76
2019-01-18T12:59:22.343Z,4.9
2019-01-18T13:00:22.767Z,5.02
2019-01-18T13:01:27.814Z,5.08
2019-01-18T13:02:25.850Z,5.1
2019-01-18T13:03:28.746Z,5.04
2019-01-18T13:03:40.760Z,5.1
2019-01-18T13:04:41.882Z,5.05
2019-01-18T13:05:43.300Z,5.19
2019-01-18T13:06:43.718Z,5.28
2019-01-18T13:07:44.142Z,5.2
2019-01-18T13:08:46.758Z,5.1
2019-01-18T13:09:49.611Z,5.2
2019-01-18T13:10:02.344Z,5.16
2019-01-18T13:11:05.816Z,5.26
2019-01-18T13:11:14.456Z,5.2
2019-01-18T13:12:16.390Z,5.23
2019-01-18T13:12:29.644Z,5.31
2019-01-18T13:12:41.495Z,5.23
2019-01-18T13:12:53.397Z,5.25
2019-01-18T13:13:04.523Z,5.25
2019-01-18T13:13:17.237Z,5.26
2019-01-18T13:13:30.222Z,5.25
2019-01-18T13:13:40.880Z,5.13